createdAt,value
2022-12-05T00:02:27.178Z,97835.44
2022-12-05T00:04:56.715Z,97824.19
2022-12-05T00:07:25.148Z,97848.69
2022-12-05T00:09:54.980Z,97833.41
2022-12-05T00:12:23.624Z,97832.53
2022-12-05T00:14:52.073Z,97828.19
2022-12-05T00:17:20.330Z,97823.00
2022-12-05T00:19:52.305Z,97824.09
2022-12-05T00:22:25.014Z,97819.78
2022-12-05T00:24:55.006Z,97829.41
2022-12-05T00:27:23.239Z,97827.53
2022-12-05T00:29:51.506Z,97838.41
2022-12-05T00:32:19.861Z,97834.16
2022-12-05T00:34:48.271Z,97831.56
2022-12-05T00:37:16.549Z,97826.50
2022-12-05T00:39:45.173Z,97825.63
2022-12-05T00:42:15.205Z,97827.34
2022-12-05T00:44:43.838Z,97830.09
2022-12-05T00:47:12.169Z,97815.66
2022-12-05T00:49:40.430Z,97804.53
2022-12-05T00:52:08.878Z,97821.81
2022-12-05T00:54:37.151Z,97818.41
2022-12-05T00:57:06.537Z,97823.41
2022-12-05T00:59:36.246Z,97823.09
2022-12-05T01:02:04.996Z,97816.22
2022-12-05T01:04:33.284Z,97820.78
2022-12-05T01:07:01.566Z,97821.88
2022-12-05T01:09:31.306Z,97804.69
2022-12-05T01:11:59.711Z,97796.38
2022-12-05T01:14:28.610Z,97798.47
2022-12-05T01:16:58.818Z,97802.72
2022-12-05T01:19:28.743Z,97808.84
2022-12-05T01:21:58.063Z,97805.81
2022-12-05T01:24:27.669Z,97804.97
2022-12-05T01:26:56.883Z,97793.22
2022-12-05T01:29:25.945Z,97796.53
2022-12-05T01:31:54.756Z,97810.31
2022-12-05T01:34:24.799Z,97806.97
2022-12-05T01:36:53.182Z,97806.16
2022-12-05T01:39:21.489Z,97806.91
2022-12-05T01:41:50.848Z,97810.44
2022-12-05T01:44:56.453Z,97794.06
2022-12-05T01:47:26.554Z,97796.00
2022-12-05T01:49:57.430Z,97797.66
2022-12-05T01:52:28.479Z,97795.69
2022-12-05T01:54:59.496Z,97791.50
2022-12-05T01:57:30.143Z,97794.22
2022-12-05T02:00:02.171Z,97789.81
2022-12-05T02:02:43.403Z,97787.09
2022-12-05T02:05:16.989Z,97786.94
2022-12-05T02:07:45.516Z,97783.09
2022-12-05T02:10:14.284Z,97784.78
2022-12-05T02:12:43.252Z,97778.59
2022-12-05T02:15:22.392Z,97777.94
2022-12-05T02:17:56.950Z,97775.25
2022-12-05T02:20:34.928Z,97774.56
2022-12-05T02:23:40.155Z,97771.00
2022-12-05T02:26:39.292Z,97773.03
2022-12-05T02:29:39.483Z,97765.91
2022-12-05T02:32:12.640Z,97759.72
2022-12-05T02:34:48.384Z,97757.31
2022-12-05T02:37:22.176Z,97760.50
2022-12-05T02:39:55.288Z,97749.31
2022-12-05T02:42:28.234Z,97749.09
2022-12-05T02:44:59.288Z,97745.59
2022-12-05T02:47:32.207Z,97742.75
2022-12-05T02:50:01.059Z,97747.03
2022-12-05T02:52:30.379Z,97748.84
2022-12-05T02:54:59.387Z,97747.31
2022-12-05T02:57:27.642Z,97743.38
2022-12-05T02:59:56.135Z,97746.84
2022-12-05T03:02:26.306Z,97751.06
2022-12-05T03:04:58.015Z,97744.75
2022-12-05T03:07:28.187Z,97748.81
2022-12-05T03:09:58.354Z,97751.31
2022-12-05T03:12:28.974Z,97749.66
2022-12-05T03:14:59.488Z,97747.88
2022-12-05T03:17:35.164Z,97753.84
2022-12-05T03:20:08.876Z,97763.34
2022-12-05T03:22:41.308Z,97758.28
2022-12-05T03:25:10.070Z,97754.84
2022-12-05T03:27:48.045Z,97760.63
2022-12-05T03:30:17.854Z,97758.97
2022-12-05T03:32:51.182Z,97752.91
2022-12-05T03:35:25.008Z,97763.78
2022-12-05T03:37:56.162Z,97758.00
2022-12-05T03:40:29.129Z,97761.09
2022-12-05T03:43:02.856Z,97770.44
2022-12-05T03:45:36.038Z,97775.72
2022-12-05T03:48:12.426Z,97769.56
2022-12-05T03:50:44.206Z,97767.03
2022-12-05T03:53:19.938Z,97768.50
2022-12-05T03:55:52.431Z,97768.56
2022-12-05T03:58:24.856Z,97765.03
2022-12-05T04:00:54.338Z,97779.88
2022-12-05T04:03:26.537Z,97771.44
2022-12-05T04:05:58.138Z,97768.50
2022-12-05T04:08:29.001Z,97774.16
2022-12-05T04:11:01.822Z,97767.00
2022-12-05T04:13:34.837Z,97764.56
2022-12-05T04:16:23.850Z,97769.31
2022-12-05T04:18:55.770Z,97768.81
2022-12-05T04:21:39.184Z,97764.81
2022-12-05T04:24:27.960Z,97778.31
2022-12-05T04:27:08.035Z,97772.63
2022-12-05T04:29:39.301Z,97772.91
2022-12-05T04:32:10.818Z,97772.28
2022-12-05T04:34:39.263Z,97776.56
2022-12-05T04:37:12.659Z,97768.31
2022-12-05T04:39:47.167Z,97769.94
2022-12-05T04:42:17.500Z,97770.69
2022-12-05T04:44:49.075Z,97774.69
2022-12-05T04:47:19.223Z,97778.59
2022-12-05T04:49:52.175Z,97773.03
2022-12-05T04:52:23.994Z,97763.78
2022-12-05T04:54:54.707Z,97773.38
2022-12-05T04:57:25.877Z,97770.63
2022-12-05T04:59:54.334Z,97774.28
2022-12-05T05:02:26.476Z,97775.88
2022-12-05T05:04:56.229Z,97777.47
2022-12-05T05:07:26.241Z,97779.25
2022-12-05T05:09:54.536Z,97775.78
2022-12-05T05:12:22.836Z,97772.38
2022-12-05T05:14:51.102Z,97780.88
2022-12-05T05:17:19.981Z,97776.69
2022-12-05T05:19:49.045Z,97786.78
2022-12-05T05:22:17.622Z,97776.66
2022-12-05T05:24:47.633Z,97783.53
2022-12-05T05:27:15.997Z,97783.28
2022-12-05T05:29:44.503Z,97782.56
2022-12-05T05:32:12.785Z,97789.47
2022-12-05T05:34:41.372Z,97781.91
2022-12-05T05:37:09.838Z,97777.50
2022-12-05T05:39:38.160Z,97781.91
2022-12-05T05:42:07.960Z,97780.81
2022-12-05T05:44:36.471Z,97783.34
2022-12-05T05:47:05.120Z,97784.31
2022-12-05T05:49:33.499Z,97782.19
2022-12-05T05:52:01.786Z,97782.09
2022-12-05T05:54:30.296Z,97776.88
2022-12-05T05:56:58.628Z,97790.56
2022-12-05T05:59:28.332Z,97792.13
2022-12-05T06:01:56.623Z,97782.81
2022-12-05T06:04:24.999Z,97779.44
2022-12-05T06:06:53.335Z,97783.00
2022-12-05T06:09:21.649Z,97789.84
2022-12-05T06:11:50.210Z,97785.59
2022-12-05T06:14:18.861Z,97784.06
2022-12-05T06:16:48.762Z,97789.16
2022-12-05T06:19:17.349Z,97788.34
2022-12-05T06:21:45.751Z,97790.16
2022-12-05T06:24:14.321Z,97788.56
2022-12-05T06:26:42.783Z,97794.50
2022-12-05T06:29:11.181Z,97788.91
2022-12-05T06:31:39.544Z,97789.56
2022-12-05T06:34:09.621Z,97789.50
2022-12-05T06:36:37.900Z,97797.88
2022-12-05T06:39:06.420Z,97792.13
2022-12-05T06:41:34.884Z,97797.81
2022-12-05T06:44:03.715Z,97793.56
2022-12-05T06:46:33.171Z,97811.28
2022-12-05T06:49:01.500Z,97819.66
2022-12-05T06:51:33.457Z,97830.69
2022-12-05T06:54:01.788Z,97828.97
2022-12-05T06:56:30.063Z,97828.38
2022-12-05T06:58:58.336Z,97836.13
2022-12-05T07:01:42.624Z,97829.53
2022-12-05T07:04:14.014Z,97825.31
2022-12-05T07:06:50.159Z,97835.09
2022-12-05T07:09:19.709Z,97834.00
2022-12-05T07:11:48.654Z,97837.16
2022-12-05T07:14:38.965Z,97839.41
2022-12-05T07:17:05.850Z,97838.66
2022-12-05T07:19:34.228Z,97832.78
2022-12-05T07:22:04.938Z,97839.00
2022-12-05T07:24:33.339Z,97851.09
2022-12-05T07:27:01.560Z,97854.47
2022-12-05T07:29:30.066Z,97850.53
2022-12-05T07:31:58.517Z,97852.22
2022-12-05T07:34:27.014Z,97852.53
2022-12-05T07:36:55.303Z,97843.75
2022-12-05T07:39:24.985Z,97850.50
2022-12-05T07:41:53.225Z,97843.06
2022-12-05T07:44:21.567Z,97845.56
2022-12-05T07:46:49.843Z,97851.00
2022-12-05T07:49:18.131Z,97844.44
2022-12-05T07:51:46.494Z,97836.84
2022-12-05T07:54:14.777Z,97840.66
2022-12-05T07:56:47.781Z,97838.41
2022-12-05T07:59:16.632Z,97844.59
2022-12-05T08:01:44.974Z,97849.63
2022-12-05T08:04:15.581Z,97847.03
2022-12-05T08:06:44.464Z,97858.03
2022-12-05T08:09:12.832Z,97852.81
2022-12-05T08:11:41.071Z,97851.41
2022-12-05T08:14:11.471Z,97852.56
2022-12-05T08:16:39.859Z,97838.41
2022-12-05T08:19:09.953Z,97840.22
2022-12-05T08:21:38.220Z,97853.56
2022-12-05T08:24:07.438Z,97853.69
2022-12-05T08:26:37.410Z,97837.50
2022-12-05T08:29:07.438Z,97836.25
2022-12-05T08:31:40.552Z,97832.66
2022-12-05T08:34:09.042Z,97825.47
2022-12-05T08:36:37.784Z,97829.94
2022-12-05T08:39:08.098Z,97841.09
2022-12-05T08:41:36.402Z,97837.41
2022-12-05T08:44:06.699Z,97837.47
2022-12-05T08:46:37.818Z,97839.94
2022-12-05T08:49:07.374Z,97845.06
2022-12-05T08:51:36.063Z,97851.47
2022-12-05T08:54:05.089Z,97847.31
2022-12-05T08:56:34.081Z,97840.13
2022-12-05T08:59:05.615Z,97838.28
2022-12-05T09:01:38.758Z,97848.66
2022-12-05T09:04:08.357Z,97859.81
2022-12-05T09:06:36.650Z,97857.50
2022-12-05T09:09:07.681Z,97866.13
2022-12-05T09:11:40.952Z,97874.19
2022-12-05T09:14:09.427Z,97871.78
2022-12-05T09:16:40.642Z,97859.78
2022-12-05T09:19:14.600Z,97864.13
2022-12-05T09:21:43.670Z,97861.31
2022-12-05T09:24:13.514Z,97854.53
2022-12-05T09:26:42.577Z,97844.91
2022-12-05T09:29:16.703Z,97850.03
2022-12-05T09:31:47.529Z,97841.88
2022-12-05T09:34:18.349Z,97849.19
2022-12-05T09:37:05.539Z,97848.50
2022-12-05T09:39:40.578Z,97845.22
2022-12-05T09:42:36.917Z,97845.00
2022-12-05T09:45:20.211Z,97836.16
2022-12-05T09:47:56.338Z,97832.22
2022-12-05T09:50:34.891Z,97832.34
2022-12-05T09:53:11.926Z,97828.53
2022-12-05T09:55:48.571Z,97829.53
2022-12-05T09:58:38.922Z,97825.84
2022-12-05T10:01:27.478Z,97827.22
2022-12-05T10:04:26.145Z,97828.16
2022-12-05T10:07:01.925Z,97837.31
2022-12-05T10:09:41.870Z,97834.13
2022-12-05T10:12:17.187Z,97836.47
2022-12-05T10:14:53.457Z,97842.81
2022-12-05T10:17:25.475Z,97837.06
2022-12-05T10:19:58.803Z,97833.69
2022-12-05T10:22:30.819Z,97828.53
2022-12-05T10:25:02.739Z,97822.19
2022-12-05T10:27:39.963Z,97825.72
2022-12-05T10:30:15.723Z,97822.84
2022-12-05T10:32:53.371Z,97817.53
2022-12-05T10:35:24.826Z,97812.25
2022-12-05T10:37:55.968Z,97809.22
2022-12-05T10:40:25.892Z,97809.34
2022-12-05T10:42:54.211Z,97799.47
2022-12-05T10:45:24.377Z,97790.44
2022-12-05T10:47:55.976Z,97789.34
2022-12-05T10:50:30.675Z,97786.03
2022-12-05T10:53:01.830Z,97780.50
2022-12-05T10:55:32.683Z,97779.69
2022-12-05T10:58:17.276Z,97785.19
2022-12-05T11:00:48.467Z,97774.81
2022-12-05T11:03:26.042Z,97777.59
2022-12-05T11:05:57.939Z,97772.59
2022-12-05T11:08:55.978Z,97772.94
2022-12-05T11:11:21.661Z,97775.41
2022-12-05T11:13:54.974Z,97774.59
2022-12-05T11:16:26.085Z,97775.22
2022-12-05T11:18:54.517Z,97764.78
2022-12-05T11:21:24.323Z,97771.16
2022-12-05T11:23:52.713Z,97776.13
2022-12-05T11:26:37.689Z,97763.50
2022-12-05T11:29:06.448Z,97763.31
2022-12-05T11:31:35.302Z,97757.69
2022-12-05T11:34:15.106Z,97749.41
2022-12-05T11:36:48.380Z,97747.41
2022-12-05T11:39:17.737Z,97738.34
2022-12-05T11:41:58.804Z,97752.84
2022-12-05T11:44:42.035Z,97742.31
2022-12-05T11:47:19.107Z,97732.50
2022-12-05T11:50:09.464Z,97726.44
2022-12-05T11:52:51.765Z,97723.16
2022-12-05T11:55:24.185Z,97712.19
2022-12-05T11:58:25.403Z,97717.13
2022-12-05T12:01:03.716Z,97710.56
2022-12-05T12:03:45.068Z,97704.63
2022-12-05T12:06:26.719Z,97714.41
2022-12-05T12:09:10.500Z,97702.63
2022-12-05T12:11:43.074Z,97693.56
2022-12-05T12:14:17.513Z,97682.19
2022-12-05T12:16:54.886Z,97687.44
2022-12-05T12:19:34.553Z,97695.97
2022-12-05T12:22:13.786Z,97684.72
2022-12-05T12:24:58.832Z,97688.47
2022-12-05T12:27:41.668Z,97681.16
2022-12-05T12:30:15.835Z,97685.31
2022-12-05T12:32:54.540Z,97677.84
2022-12-05T12:35:32.842Z,97673.00
2022-12-05T12:38:29.576Z,97667.84
2022-12-05T12:41:03.619Z,97672.97
2022-12-05T12:43:58.860Z,97691.19
2022-12-05T12:46:39.486Z,97703.91
2022-12-05T12:49:25.501Z,97707.38
2022-12-05T12:51:55.089Z,97706.41
2022-12-05T12:55:02.277Z,97690.38
2022-12-05T12:57:28.834Z,97672.31
2022-12-05T13:00:05.557Z,97669.81
2022-12-05T13:02:37.933Z,97686.78
2022-12-05T13:05:09.029Z,97705.06
2022-12-05T13:07:41.780Z,97687.81
2022-12-05T13:10:18.444Z,97684.84
2022-12-05T13:12:48.539Z,97681.38
2022-12-05T13:15:21.404Z,97664.53
2022-12-05T13:17:50.624Z,97678.94
2022-12-05T13:20:22.202Z,97666.28
2022-12-05T13:22:52.109Z,97665.91
2022-12-05T13:25:23.409Z,97669.00
2022-12-05T13:27:59.070Z,97658.56
2022-12-05T13:30:28.396Z,97650.97
2022-12-05T13:32:58.549Z,97661.97
2022-12-05T13:35:49.668Z,97677.22
2022-12-05T13:38:40.442Z,97667.69
2022-12-05T13:41:26.500Z,97657.44
2022-12-05T13:44:06.429Z,97668.41
2022-12-05T13:46:36.651Z,97665.91
2022-12-05T13:49:08.848Z,97666.56
2022-12-05T13:51:41.853Z,97673.16
2022-12-05T13:54:13.983Z,97676.53
2022-12-05T13:56:51.822Z,97670.38
2022-12-05T13:59:58.127Z,97676.34
2022-12-05T14:02:52.308Z,97682.34
2022-12-05T14:05:41.112Z,97684.22
2022-12-05T14:08:48.912Z,97702.03
2022-12-05T14:11:18.196Z,97696.22
2022-12-05T14:13:46.876Z,97699.59
2022-12-05T14:16:49.712Z,97689.09
2022-12-05T14:19:49.372Z,97690.03
2022-12-05T14:22:41.552Z,97693.84
2022-12-05T14:25:17.954Z,97700.38
2022-12-05T14:27:52.633Z,97701.09
2022-12-05T14:30:26.040Z,97701.66
2022-12-05T14:32:55.388Z,97692.38
2022-12-05T14:35:30.050Z,97702.97
2022-12-05T14:38:01.108Z,97700.25
2022-12-05T14:40:33.089Z,97704.41
2022-12-05T14:43:03.289Z,97712.19
2022-12-05T14:45:35.253Z,97712.28
2022-12-05T14:48:06.891Z,97712.44
2022-12-05T14:50:43.474Z,97720.03
2022-12-05T14:53:37.728Z,97703.97
2022-12-05T14:56:17.774Z,97700.75
2022-12-05T14:58:50.628Z,97712.50
2022-12-05T15:01:21.290Z,97711.63
2022-12-05T15:04:05.006Z,97715.78
2022-12-05T15:06:37.699Z,97717.53
2022-12-05T15:09:36.089Z,97712.78
2022-12-05T15:11:58.908Z,97706.91
2022-12-05T15:14:31.407Z,97711.03
2022-12-05T15:17:01.292Z,97708.63
2022-12-05T15:19:32.924Z,97707.84
2022-12-05T15:22:07.925Z,97714.72
2022-12-05T15:24:39.806Z,97704.47
2022-12-05T15:27:12.889Z,97703.25
2022-12-05T15:29:41.644Z,97705.53
2022-12-05T15:32:17.906Z,97702.06
2022-12-05T15:34:48.594Z,97707.88
2022-12-05T15:37:21.804Z,97729.69
2022-12-05T15:39:56.820Z,97730.84
2022-12-05T15:42:30.210Z,97729.28
2022-12-05T15:45:16.039Z,97727.50
2022-12-05T15:47:47.777Z,97727.34
2022-12-05T15:50:16.828Z,97722.28
2022-12-05T15:52:50.787Z,97712.94
2022-12-05T15:55:22.204Z,97722.38
2022-12-05T15:57:56.247Z,97720.72
2022-12-05T16:00:26.411Z,97726.78
2022-12-05T16:02:58.218Z,97724.13
2022-12-05T16:05:30.141Z,97720.81
2022-12-05T16:08:02.110Z,97720.78
2022-12-05T16:10:32.061Z,97717.25
2022-12-05T16:13:06.489Z,97727.47
2022-12-05T16:15:35.361Z,97718.16
2022-12-05T16:18:06.176Z,97716.50
2022-12-05T16:20:36.192Z,97717.44
2022-12-05T16:23:07.001Z,97713.22
2022-12-05T16:25:37.244Z,97709.97
2022-12-05T16:28:17.609Z,97702.31
2022-12-05T16:30:59.173Z,97709.09
2022-12-05T16:33:28.533Z,97710.00
2022-12-05T16:35:57.153Z,97698.13
2022-12-05T16:38:30.044Z,97704.97
2022-12-05T16:41:00.529Z,97694.69
2022-12-05T16:43:43.007Z,97690.59
2022-12-05T16:46:45.920Z,97689.66
2022-12-05T16:49:37.828Z,97683.63
2022-12-05T16:52:15.607Z,97681.84
2022-12-05T16:54:48.340Z,97679.91
2022-12-05T16:57:18.722Z,97687.69
2022-12-05T16:59:49.561Z,97682.84
2022-12-05T17:02:21.759Z,97671.59
2022-12-05T17:04:50.489Z,97684.94
2022-12-05T17:07:19.559Z,97689.47
2022-12-05T17:09:50.840Z,97682.06
2022-12-05T17:12:24.730Z,97675.63
2022-12-05T17:14:53.511Z,97680.72
2022-12-05T17:17:29.257Z,97690.09
2022-12-05T17:19:59.461Z,97674.03
2022-12-05T17:22:28.789Z,97680.84
2022-12-05T17:25:01.559Z,97686.75
2022-12-05T17:27:33.795Z,97689.34
2022-12-05T17:30:02.501Z,97676.53
2022-12-05T17:32:31.710Z,97678.31
2022-12-05T17:35:06.577Z,97663.09
2022-12-05T17:37:36.322Z,97667.41
2022-12-05T17:40:08.697Z,97664.22
2022-12-05T17:42:38.979Z,97664.16
2022-12-05T17:45:10.743Z,97670.97
2022-12-05T17:47:39.208Z,97658.19
2022-12-05T17:50:09.145Z,97659.88
2022-12-05T17:52:38.016Z,97658.16
2022-12-05T17:55:18.554Z,97666.72
2022-12-05T17:57:50.157Z,97660.72
2022-12-05T18:00:22.281Z,97651.41
2022-12-05T18:02:52.960Z,97661.72
2022-12-05T18:05:22.204Z,97660.00
2022-12-05T18:07:52.021Z,97674.63
2022-12-05T18:10:24.211Z,97677.78
2022-12-05T18:12:57.355Z,97680.44
2022-12-05T18:15:26.049Z,97683.69
2022-12-05T18:17:56.107Z,97672.72
2022-12-05T18:20:25.482Z,97676.34
2022-12-05T18:22:55.362Z,97664.25
2022-12-05T18:25:26.856Z,97665.13
2022-12-05T18:27:56.623Z,97666.97
2022-12-05T18:30:25.965Z,97654.03
2022-12-05T18:32:55.417Z,97665.88
2022-12-05T18:35:40.700Z,97659.03
2022-12-05T18:38:15.906Z,97657.31
2022-12-05T18:40:47.732Z,97654.84
2022-12-05T18:43:17.939Z,97662.63
2022-12-05T18:45:47.657Z,97655.53
2022-12-05T18:48:38.750Z,97658.16
2022-12-05T18:51:13.068Z,97646.31
2022-12-05T18:53:52.897Z,97651.34
2022-12-05T18:56:28.324Z,97656.34
2022-12-05T18:59:00.536Z,97638.50
2022-12-05T19:01:31.574Z,97645.41
2022-12-05T19:04:06.074Z,97643.88
2022-12-05T19:06:52.348Z,97647.06
2022-12-05T19:09:26.964Z,97632.50
2022-12-05T19:12:03.930Z,97636.84
2022-12-05T19:17:55.914Z,97622.03
2022-12-05T19:20:29.368Z,97627.16
2022-12-05T19:23:03.256Z,97617.06
2022-12-05T19:28:59.902Z,97611.06
2022-12-05T19:32:06.642Z,97621.31
2022-12-05T19:35:05.469Z,97641.69
2022-12-05T19:37:37.394Z,97637.50
2022-12-05T19:40:18.580Z,97626.44
2022-12-05T19:42:49.570Z,97620.34
2022-12-05T19:45:22.143Z,97625.47
2022-12-05T19:47:52.386Z,97631.56
2022-12-05T19:50:29.188Z,97635.69
2022-12-05T19:53:08.872Z,97623.69
2022-12-05T19:55:41.361Z,97621.94
2022-12-05T19:58:12.065Z,97610.03
2022-12-05T20:00:49.556Z,97614.34
2022-12-05T20:03:19.325Z,97600.69
2022-12-05T20:05:58.966Z,97597.19
2022-12-05T20:08:38.825Z,97583.66
2022-12-05T20:11:12.952Z,97585.44
2022-12-05T20:13:47.864Z,97595.56
2022-12-05T20:16:22.361Z,97589.44
2022-12-05T20:18:53.370Z,97603.09
2022-12-05T20:21:24.405Z,97603.88
2022-12-05T20:23:55.203Z,97609.69
2022-12-05T20:26:28.130Z,97611.63
2022-12-05T20:28:59.440Z,97600.59
2022-12-05T20:31:37.165Z,97574.97
2022-12-05T20:34:07.914Z,97560.66
2022-12-05T20:36:39.030Z,97557.06
2022-12-05T20:39:18.085Z,97571.09
2022-12-05T20:41:51.053Z,97575.38
2022-12-05T20:44:20.902Z,97571.28
2022-12-05T20:46:55.871Z,97556.81
2022-12-05T20:49:26.556Z,97558.81
2022-12-05T20:51:58.265Z,97565.53
2022-12-05T20:54:28.153Z,97563.03
2022-12-05T20:56:58.718Z,97574.97
2022-12-05T20:59:28.189Z,97574.03
2022-12-05T21:01:59.253Z,97573.91
2022-12-05T21:04:28.977Z,97576.59
2022-12-05T21:06:58.807Z,97566.44
2022-12-05T21:09:30.504Z,97555.44
2022-12-05T21:12:00.967Z,97550.63
2022-12-05T21:14:29.701Z,97562.66
2022-12-05T21:17:01.668Z,97566.06
2022-12-05T21:19:31.702Z,97568.28
2022-12-05T21:22:01.204Z,97577.84
2022-12-05T21:24:30.143Z,97588.28
2022-12-05T21:26:58.556Z,97594.25
2022-12-05T21:29:27.401Z,97603.34
2022-12-05T21:31:55.697Z,97614.63
2022-12-05T21:34:25.456Z,97616.75
2022-12-05T21:36:53.911Z,97610.69
2022-12-05T21:39:23.106Z,97610.03
2022-12-05T21:41:51.552Z,97605.66
2022-12-05T21:44:20.403Z,97602.19
2022-12-05T21:46:49.614Z,97609.53
2022-12-05T21:49:18.198Z,97612.09
2022-12-05T21:51:47.950Z,97604.47
2022-12-05T21:54:16.529Z,97589.94
2022-12-05T21:56:45.372Z,97578.00
2022-12-05T21:59:13.789Z,97562.13
2022-12-05T22:01:42.196Z,97540.13
2022-12-05T22:04:10.580Z,97537.56
2022-12-05T22:06:40.571Z,97544.88
2022-12-05T22:09:12.141Z,97559.19
2022-12-05T22:11:41.850Z,97527.72
2022-12-05T22:14:10.621Z,97550.06
2022-12-05T22:16:38.962Z,97531.97
2022-12-05T22:19:07.547Z,97542.91
2022-12-05T22:21:35.998Z,97574.03
2022-12-05T22:24:04.517Z,97573.84
2022-12-05T22:26:34.312Z,97566.38
2022-12-05T22:29:02.656Z,97553.44
2022-12-05T22:31:31.125Z,97546.41
2022-12-05T22:34:00.191Z,97548.53
2022-12-05T22:36:28.566Z,97532.09
2022-12-05T22:38:57.270Z,97539.81
2022-12-05T22:41:27.119Z,97546.41
2022-12-05T22:43:58.375Z,97542.94
2022-12-05T22:46:29.341Z,97551.63
2022-12-05T22:48:58.713Z,97551.31
2022-12-05T22:51:28.123Z,97532.53
2022-12-05T22:53:57.118Z,97522.63
2022-12-05T22:56:27.783Z,97530.38
2022-12-05T22:59:01.926Z,97517.16
2022-12-05T23:01:31.804Z,97521.06
2022-12-05T23:04:01.328Z,97514.06
2022-12-05T23:06:31.091Z,97514.00
2022-12-05T23:08:59.886Z,97510.53
2022-12-05T23:11:29.848Z,97511.31
2022-12-05T23:14:02.183Z,97515.78
2022-12-05T23:16:33.276Z,97503.78
2022-12-05T23:19:04.047Z,97502.81
2022-12-05T23:21:34.386Z,97505.44
2022-12-05T23:24:09.090Z,97506.09
2022-12-05T23:26:39.461Z,97504.75
2022-12-05T23:29:12.154Z,97482.09
2022-12-05T23:31:40.669Z,97489.53
2022-12-05T23:34:09.761Z,97484.03
2022-12-05T23:36:39.230Z,97490.19
2022-12-05T23:39:07.960Z,97486.13
2022-12-05T23:41:36.469Z,97478.00
2022-12-05T23:44:07.278Z,97486.91
2022-12-05T23:46:38.040Z,97491.78
2022-12-05T23:49:06.815Z,97489.59
2022-12-05T23:51:40.211Z,97484.84
2022-12-05T23:54:11.054Z,97479.03
2022-12-05T23:56:40.332Z,97473.03
2022-12-05T23:59:10.011Z,97466.00
